createdAt,value
2022-10-29T00:00:31.338Z,6.07
2022-10-29T00:03:01.127Z,5.63
2022-10-29T00:05:30.871Z,6.50
2022-10-29T00:08:00.846Z,6.75
2022-10-29T00:10:31.178Z,6.90
2022-10-29T00:13:06.939Z,6.45
2022-10-29T00:15:36.971Z,5.93
2022-10-29T00:18:07.008Z,5.97
2022-10-29T00:20:36.851Z,5.20
2022-10-29T00:23:06.619Z,5.97
2022-10-29T00:25:36.428Z,5.53
2022-10-29T00:28:08.794Z,5.10
2022-10-29T00:30:38.819Z,5.32
2022-10-29T00:33:08.573Z,5.30
2022-10-29T00:35:38.291Z,5.22
2022-10-29T00:38:07.993Z,5.60
2022-10-29T00:40:39.875Z,5.43
2022-10-29T00:43:20.029Z,6.47
2022-10-29T00:45:53.488Z,5.97
2022-10-29T00:48:25.039Z,5.47
2022-10-29T00:50:56.347Z,6.63
2022-10-29T00:53:29.116Z,5.75
2022-10-29T00:55:59.456Z,6.22
2022-10-29T00:58:32.215Z,5.70
2022-10-29T01:01:02.078Z,5.30
2022-10-29T01:03:31.752Z,5.13
2022-10-29T01:06:02.955Z,5.60
2022-10-29T01:08:32.694Z,5.40
2022-10-29T01:11:10.803Z,5.20
2022-10-29T01:13:54.354Z,3.95
2022-10-29T01:16:42.836Z,4.25
2022-10-29T01:19:20.751Z,3.95
2022-10-29T01:21:54.516Z,3.75
2022-10-29T01:24:48.208Z,4.00
2022-10-29T01:27:50.395Z,4.93
2022-10-29T01:30:33.855Z,4.60
2022-10-29T01:33:15.392Z,5.25
2022-10-29T01:35:52.432Z,4.45
2022-10-29T01:38:34.793Z,4.68
2022-10-29T01:41:15.097Z,4.63
2022-10-29T01:43:50.661Z,4.88
2022-10-29T01:46:25.977Z,4.30
2022-10-29T01:49:00.942Z,4.63
2022-10-29T01:51:34.974Z,5.07
2022-10-29T01:54:08.915Z,5.32
2022-10-29T01:56:38.876Z,5.05
2022-10-29T01:59:23.033Z,5.43
2022-10-29T02:02:11.933Z,5.05
2022-10-29T02:05:12.154Z,5.07
2022-10-29T02:07:52.448Z,5.68
2022-10-29T02:10:32.561Z,5.60
2022-10-29T02:13:03.085Z,5.13
2022-10-29T02:15:39.850Z,5.38
2022-10-29T02:18:11.411Z,5.30
2022-10-29T02:20:48.592Z,5.43
2022-10-29T02:23:19.201Z,5.38
2022-10-29T02:25:48.996Z,4.95
2022-10-29T02:30:48.475Z,4.60
2022-10-29T02:33:18.153Z,4.95
2022-10-29T02:35:50.495Z,4.72
2022-10-29T02:38:20.243Z,5.25
2022-10-29T02:40:50.020Z,4.82
2022-10-29T02:46:17.347Z,4.72
2022-10-29T02:48:47.200Z,4.30
2022-10-29T02:51:20.743Z,4.38
2022-10-29T02:53:50.430Z,5.15
2022-10-29T02:56:20.111Z,4.75
2022-10-29T02:58:49.808Z,4.35
2022-10-29T03:01:19.676Z,4.22
2022-10-29T03:03:49.552Z,4.20
2022-10-29T03:06:23.176Z,4.15
2022-10-29T03:08:52.915Z,4.60
2022-10-29T03:11:22.604Z,4.25
2022-10-29T03:13:52.312Z,4.10
2022-10-29T03:16:22.008Z,4.00
2022-10-29T03:18:51.726Z,3.97
2022-10-29T03:21:24.027Z,3.90
2022-10-29T03:23:53.799Z,3.97
2022-10-29T03:26:23.486Z,4.00
2022-10-29T03:28:53.201Z,3.97
2022-10-29T03:31:22.874Z,3.97
2022-10-29T03:33:52.603Z,4.20
2022-10-29T03:36:24.971Z,3.75
2022-10-29T03:38:54.730Z,3.58
2022-10-29T03:41:24.429Z,3.70
2022-10-29T03:46:24.072Z,3.20
2022-10-29T03:48:53.776Z,2.78
2022-10-29T03:51:26.093Z,3.13
2022-10-29T03:53:55.811Z,2.88
2022-10-29T03:56:25.472Z,3.00
2022-10-29T03:58:55.299Z,3.13
2022-10-29T04:01:25.223Z,2.88
2022-10-29T04:03:54.984Z,3.73
2022-10-29T04:06:27.287Z,3.65
2022-10-29T04:08:57.989Z,3.58
2022-10-29T04:11:27.694Z,3.28
2022-10-29T04:13:57.478Z,6.30
2022-10-29T04:16:27.210Z,4.18
2022-10-29T04:18:56.917Z,3.78
2022-10-29T04:23:25.480Z,3.70
2022-10-29T04:27:01.770Z,3.70
2022-10-29T04:28:21.639Z,3.80
2022-10-29T04:29:58.371Z,4.80
2022-10-29T04:32:28.091Z,4.32
2022-10-29T04:34:57.819Z,3.95
2022-10-29T04:37:31.245Z,3.80
2022-10-29T04:40:00.916Z,3.85
2022-10-29T04:42:30.644Z,5.80
2022-10-29T04:45:00.355Z,4.10
2022-10-29T04:47:30.155Z,3.28
2022-10-29T04:49:59.836Z,3.60
2022-10-29T04:52:32.142Z,3.38
2022-10-29T04:55:01.820Z,4.15
2022-10-29T04:57:31.521Z,3.83
2022-10-29T05:00:01.276Z,3.60
2022-10-29T05:02:30.946Z,4.47
2022-10-29T05:05:00.630Z,4.03
2022-10-29T05:07:32.935Z,5.60
2022-10-29T05:10:02.763Z,4.40
2022-10-29T05:12:32.488Z,4.18
2022-10-29T05:15:02.206Z,4.28
2022-10-29T05:17:31.980Z,4.13
2022-10-29T05:20:01.664Z,4.50
2022-10-29T05:22:33.987Z,4.22
2022-10-29T05:25:03.718Z,4.40
2022-10-29T05:27:33.440Z,4.07
2022-10-29T05:30:03.124Z,4.95
2022-10-29T05:32:33.054Z,3.95
2022-10-29T05:35:02.800Z,3.95
2022-10-29T05:37:35.113Z,4.72
2022-10-29T05:40:04.839Z,4.20
2022-10-29T05:42:34.791Z,3.85
2022-10-29T05:45:04.547Z,3.80
2022-10-29T05:47:34.233Z,4.20
2022-10-29T05:50:03.975Z,3.72
2022-10-29T05:52:36.282Z,3.30
2022-10-29T05:55:06.145Z,3.33
2022-10-29T05:57:36.221Z,3.15
2022-10-29T06:00:06.614Z,3.53
2022-10-29T06:02:36.412Z,3.40
2022-10-29T06:05:06.183Z,2.95
2022-10-29T06:07:38.485Z,3.28
2022-10-29T06:10:09.802Z,3.63
2022-10-29T06:12:39.523Z,3.53
2022-10-29T06:15:10.793Z,2.90
2022-10-29T06:17:43.624Z,3.30
2022-10-29T06:20:15.270Z,4.03
2022-10-29T06:22:47.721Z,3.50
2022-10-29T06:25:17.535Z,4.07
2022-10-29T06:27:47.268Z,3.50
2022-10-29T06:30:17.116Z,3.92
2022-10-29T06:32:50.018Z,3.00
2022-10-29T06:35:19.753Z,4.50
2022-10-29T06:37:52.104Z,3.40
2022-10-29T06:40:22.151Z,3.55
2022-10-29T06:42:51.850Z,3.75
2022-10-29T06:45:21.539Z,4.88
2022-10-29T06:47:51.237Z,3.70
2022-10-29T06:50:21.415Z,3.80
2022-10-29T06:53:00.439Z,4.78
2022-10-29T06:55:31.211Z,3.78
2022-10-29T06:58:02.492Z,4.05
2022-10-29T07:00:33.139Z,4.18
2022-10-29T07:03:03.672Z,4.03
2022-10-29T07:05:33.406Z,4.80
2022-10-29T07:08:05.758Z,3.97
2022-10-29T07:10:36.567Z,4.00
2022-10-29T07:13:06.490Z,4.07
2022-10-29T07:15:36.204Z,4.22
2022-10-29T07:18:07.879Z,5.07
2022-10-29T07:20:40.493Z,5.05
2022-10-29T07:23:13.481Z,5.93
2022-10-29T07:25:44.128Z,3.67
2022-10-29T07:28:16.421Z,4.30
2022-10-29T07:30:46.953Z,4.60
2022-10-29T07:33:16.811Z,5.60
2022-10-29T07:35:47.127Z,5.95
2022-10-29T07:38:19.412Z,6.93
2022-10-29T07:40:51.065Z,4.70
2022-10-29T07:43:21.975Z,4.93
2022-10-29T07:45:53.056Z,4.80
2022-10-29T07:48:23.648Z,5.65
2022-10-29T07:50:53.429Z,5.07
2022-10-29T07:53:25.734Z,5.65
2022-10-29T07:55:56.128Z,5.63
2022-10-29T07:58:26.752Z,5.78
2022-10-29T08:00:57.074Z,5.97
2022-10-29T08:03:26.799Z,5.72
2022-10-29T08:06:00.106Z,6.85
2022-10-29T08:08:35.004Z,6.03
2022-10-29T08:11:05.980Z,7.53
2022-10-29T08:13:36.352Z,6.13
2022-10-29T08:16:06.124Z,9.40
2022-10-29T08:18:35.947Z,7.43
2022-10-29T08:21:07.235Z,7.97
2022-10-29T08:23:39.716Z,6.82
2022-10-29T08:26:09.611Z,6.65
2022-10-29T08:28:39.413Z,6.85
2022-10-29T08:31:09.181Z,7.50
2022-10-29T08:33:39.325Z,7.38
2022-10-29T08:36:09.674Z,8.00
2022-10-29T08:38:42.086Z,6.90
2022-10-29T08:41:29.789Z,6.53
2022-10-29T08:44:14.829Z,6.38
2022-10-29T08:46:50.139Z,7.28
2022-10-29T08:49:23.696Z,6.22
2022-10-29T08:51:58.346Z,6.38
2022-10-29T08:54:34.744Z,8.10
2022-10-29T08:57:11.156Z,8.15
2022-10-29T08:59:49.640Z,6.95
2022-10-29T09:02:21.093Z,8.00
2022-10-29T09:04:51.006Z,12.73
2022-10-29T09:07:38.399Z,9.38
2022-10-29T09:10:19.294Z,10.60
2022-10-29T09:13:11.941Z,9.80
2022-10-29T09:16:02.723Z,10.40
2022-10-29T09:18:50.977Z,10.85
2022-10-29T09:21:32.328Z,10.82
2022-10-29T09:24:09.199Z,10.55
2022-10-29T09:27:04.284Z,10.55
2022-10-29T09:30:00.502Z,10.65
2022-10-29T09:32:35.957Z,11.90
2022-10-29T09:35:12.008Z,11.02
2022-10-29T09:37:46.985Z,10.90
2022-10-29T09:40:23.590Z,11.35
2022-10-29T09:42:56.251Z,12.73
2022-10-29T09:45:44.055Z,12.57
2022-10-29T09:48:23.043Z,12.32
2022-10-29T09:51:00.592Z,11.70
2022-10-29T09:53:30.344Z,11.82
2022-10-29T09:56:00.167Z,12.55
2022-10-29T09:58:32.472Z,12.75
2022-10-29T10:01:02.166Z,13.27
2022-10-29T10:03:37.955Z,12.65
2022-10-29T10:06:09.741Z,11.98
2022-10-29T10:09:03.957Z,12.75
2022-10-29T10:11:40.820Z,13.27
2022-10-29T10:14:21.541Z,12.68
2022-10-29T10:17:00.569Z,15.43
2022-10-29T10:19:33.262Z,13.93
2022-10-29T10:22:03.890Z,14.15
2022-10-29T10:24:36.394Z,15.07
2022-10-29T10:27:28.596Z,16.58
2022-10-29T10:30:20.987Z,14.68
2022-10-29T10:32:50.929Z,16.23
2022-10-29T10:35:28.815Z,14.00
2022-10-29T10:37:59.958Z,13.25
2022-10-29T10:40:31.029Z,14.32
2022-10-29T10:46:26.809Z,19.52
2022-10-29T10:49:08.327Z,15.07
2022-10-29T10:51:39.706Z,15.02
2022-10-29T10:54:29.207Z,14.25
2022-10-29T10:57:01.281Z,14.50
2022-10-29T10:59:46.027Z,13.50
2022-10-29T11:02:27.440Z,14.77
2022-10-29T11:05:05.331Z,13.82
2022-10-29T11:07:42.349Z,11.98
2022-10-29T11:10:16.784Z,12.32
2022-10-29T11:12:50.244Z,13.15
2022-10-29T11:15:26.428Z,12.95
2022-10-29T11:18:04.214Z,11.82
2022-10-29T11:20:37.362Z,12.38
2022-10-29T11:23:26.500Z,12.80
2022-10-29T11:26:03.054Z,11.45
2022-10-29T11:28:39.532Z,14.82
2022-10-29T11:31:19.196Z,11.68
2022-10-29T11:34:01.136Z,10.90
2022-10-29T11:36:34.674Z,10.30
2022-10-29T11:39:12.288Z,11.07
2022-10-29T11:41:49.568Z,10.45
2022-10-29T11:44:21.872Z,10.63
2022-10-29T11:47:07.360Z,8.25
2022-10-29T11:50:01.224Z,11.05
2022-10-29T11:52:38.963Z,10.95
2022-10-29T11:55:24.803Z,12.90
2022-10-29T11:57:58.539Z,10.43
2022-10-29T12:00:32.462Z,10.13
2022-10-29T12:03:30.463Z,9.48
2022-10-29T12:06:11.984Z,11.13
2022-10-29T12:08:56.041Z,10.10
2022-10-29T12:11:32.234Z,9.35
2022-10-29T12:14:11.542Z,11.20
2022-10-29T12:16:52.215Z,10.63
2022-10-29T12:19:37.097Z,9.85
2022-10-29T12:22:21.322Z,11.13
2022-10-29T12:25:09.062Z,8.32
2022-10-29T12:27:44.759Z,9.40
2022-10-29T12:30:18.563Z,8.65
2022-10-29T12:32:56.955Z,11.20
2022-10-29T12:35:32.463Z,9.27
2022-10-29T12:38:20.998Z,9.50
2022-10-29T12:40:55.237Z,8.65
2022-10-29T12:43:28.788Z,8.52
2022-10-29T12:46:20.093Z,9.95
2022-10-29T12:49:01.114Z,8.70
2022-10-29T12:51:38.442Z,10.18
2022-10-29T12:54:34.852Z,8.02
2022-10-29T12:57:09.786Z,8.13
2022-10-29T12:59:40.160Z,9.57
2022-10-29T13:02:30.281Z,9.48
2022-10-29T13:05:17.946Z,8.98
2022-10-29T13:08:23.998Z,9.20
2022-10-29T13:10:59.144Z,9.35
2022-10-29T13:13:53.239Z,9.32
2022-10-29T13:16:29.258Z,9.98
2022-10-29T13:19:21.203Z,8.32
2022-10-29T13:22:15.182Z,7.03
2022-10-29T13:24:45.638Z,8.02
2022-10-29T13:27:39.206Z,8.38
2022-10-29T13:30:25.581Z,7.68
2022-10-29T13:32:56.037Z,7.10
2022-10-29T13:35:43.872Z,8.10
2022-10-29T13:38:16.272Z,7.25
2022-10-29T13:41:21.223Z,8.30
2022-10-29T13:44:04.577Z,8.20
2022-10-29T13:46:49.620Z,9.57
2022-10-29T13:49:23.235Z,9.30
2022-10-29T13:51:58.498Z,10.52
2022-10-29T13:54:41.369Z,9.13
2022-10-29T13:57:20.707Z,10.55
2022-10-29T13:59:58.151Z,10.13
2022-10-29T14:02:49.843Z,9.50
2022-10-29T14:05:24.438Z,9.43
2022-10-29T14:08:00.726Z,9.32
2022-10-29T14:10:37.044Z,9.55
2022-10-29T14:13:17.962Z,9.90
2022-10-29T14:16:06.014Z,9.27
2022-10-29T14:18:37.222Z,10.35
2022-10-29T14:21:09.115Z,8.32
2022-10-29T14:23:41.074Z,7.93
2022-10-29T14:28:47.911Z,7.10
2022-10-29T14:31:22.752Z,8.13
2022-10-29T14:33:57.734Z,7.60
2022-10-29T14:36:34.039Z,10.15
2022-10-29T14:39:06.967Z,7.78
2022-10-29T14:41:41.835Z,8.70
2022-10-29T14:44:19.072Z,7.53
2022-10-29T14:47:01.293Z,6.88
2022-10-29T14:49:32.112Z,7.20
2022-10-29T14:52:03.786Z,7.25
2022-10-29T14:54:38.173Z,7.88
2022-10-29T14:57:14.163Z,7.72
2022-10-29T14:59:49.499Z,7.55
2022-10-29T15:02:37.733Z,8.00
2022-10-29T15:05:25.299Z,7.90
2022-10-29T15:07:55.260Z,7.28
2022-10-29T15:10:26.658Z,7.88
2022-10-29T15:12:57.651Z,9.32
2022-10-29T15:15:30.441Z,9.88
2022-10-29T15:18:08.190Z,7.47
2022-10-29T15:20:47.755Z,7.32
2022-10-29T15:23:24.126Z,7.70
2022-10-29T15:25:57.020Z,7.47
2022-10-29T15:28:29.894Z,8.82
2022-10-29T15:30:59.904Z,8.90
2022-10-29T15:33:33.551Z,7.65
2022-10-29T15:36:05.180Z,8.18
2022-10-29T15:39:16.908Z,7.82
2022-10-29T15:41:50.729Z,7.95
2022-10-29T15:44:31.791Z,7.82
2022-10-29T15:47:03.591Z,8.55
2022-10-29T15:49:35.913Z,7.80
2022-10-29T15:52:06.834Z,8.68
2022-10-29T15:54:36.803Z,7.50
2022-10-29T15:57:07.114Z,8.20
2022-10-29T15:59:36.968Z,8.57
2022-10-29T16:02:13.450Z,8.30
2022-10-29T16:04:45.927Z,8.48
2022-10-29T16:07:16.452Z,8.48
2022-10-29T16:09:49.496Z,9.02
2022-10-29T16:12:19.312Z,8.57
2022-10-29T16:14:49.158Z,8.93
2022-10-29T16:17:21.340Z,8.00
2022-10-29T16:19:53.789Z,8.45
2022-10-29T16:22:30.351Z,8.75
2022-10-29T16:25:00.114Z,9.75
2022-10-29T16:27:29.852Z,8.57
2022-10-29T16:29:59.687Z,8.00
2022-10-29T16:32:29.492Z,9.30
2022-10-29T16:35:01.800Z,9.00
2022-10-29T16:37:31.506Z,9.10
2022-10-29T16:40:01.207Z,8.95
2022-10-29T16:42:34.991Z,10.13
2022-10-29T16:45:05.099Z,9.95
2022-10-29T16:47:34.782Z,9.80
2022-10-29T16:50:07.846Z,9.25
2022-10-29T16:52:37.584Z,9.13
2022-10-29T16:55:08.388Z,9.93
2022-10-29T16:57:38.196Z,10.82
2022-10-29T17:00:10.587Z,12.07
2022-10-29T17:02:40.818Z,10.05
2022-10-29T17:05:13.893Z,10.65
2022-10-29T17:07:43.747Z,9.98
2022-10-29T17:10:13.961Z,10.82
2022-10-29T17:12:43.737Z,9.18
2022-10-29T17:15:13.716Z,20.50
2022-10-29T17:17:46.281Z,9.95
2022-10-29T17:20:19.502Z,10.07
2022-10-29T17:22:49.317Z,9.88
2022-10-29T17:25:19.104Z,11.80
2022-10-29T17:27:48.848Z,9.98
2022-10-29T17:30:18.683Z,11.05
2022-10-29T17:32:48.447Z,9.93
2022-10-29T17:35:20.889Z,10.30
2022-10-29T17:37:50.749Z,10.45
2022-10-29T17:40:20.531Z,9.52
2022-10-29T17:42:50.312Z,9.77
2022-10-29T17:45:22.752Z,10.77
2022-10-29T17:47:57.862Z,10.25
2022-10-29T17:50:30.619Z,10.77
2022-10-29T17:53:00.718Z,10.13
2022-10-29T17:55:30.459Z,11.27
2022-10-29T17:58:00.657Z,10.75
2022-10-29T18:00:30.570Z,11.18
2022-10-29T18:03:00.718Z,10.43
2022-10-29T18:05:33.671Z,9.48
2022-10-29T18:08:03.399Z,9.90
2022-10-29T18:10:34.624Z,11.60
2022-10-29T18:13:04.373Z,11.68
2022-10-29T18:15:34.147Z,10.57
2022-10-29T18:18:03.898Z,12.70
2022-10-29T18:20:36.383Z,10.90
2022-10-29T18:23:06.190Z,10.70
2022-10-29T18:25:35.947Z,10.93
2022-10-29T18:28:06.652Z,11.10
2022-10-29T18:30:36.394Z,11.40
2022-10-29T18:33:06.232Z,11.25
2022-10-29T18:35:38.644Z,12.25
2022-10-29T18:38:08.421Z,11.75
2022-10-29T18:40:38.200Z,10.52
2022-10-29T18:43:07.931Z,11.27
2022-10-29T18:45:37.651Z,11.68
2022-10-29T18:48:08.268Z,11.07
2022-10-29T18:50:40.643Z,12.57
2022-10-29T18:53:10.356Z,10.93
2022-10-29T18:55:40.085Z,10.18
2022-10-29T18:58:09.875Z,11.40
2022-10-29T19:00:39.940Z,10.70
2022-10-29T19:03:09.693Z,11.05
2022-10-29T19:05:42.530Z,10.48
2022-10-29T19:08:14.473Z,11.98
2022-10-29T19:10:45.900Z,12.15
2022-10-29T19:13:15.676Z,11.68
2022-10-29T19:15:45.542Z,10.85
2022-10-29T19:18:15.927Z,12.32
2022-10-29T19:20:48.608Z,12.05
2022-10-29T19:23:19.555Z,10.85
2022-10-29T19:25:49.789Z,11.38
2022-10-29T19:28:19.617Z,10.70
2022-10-29T19:30:49.479Z,10.95
2022-10-29T19:33:19.277Z,10.70
2022-10-29T19:35:51.699Z,10.68
2022-10-29T19:38:21.400Z,10.82
2022-10-29T19:40:51.124Z,10.93
2022-10-29T19:43:21.095Z,9.75
2022-10-29T19:45:50.800Z,10.60
2022-10-29T19:48:20.792Z,10.30
2022-10-29T19:50:57.539Z,9.68
2022-10-29T19:53:28.743Z,9.60
2022-10-29T19:55:58.740Z,9.10
2022-10-29T19:58:31.487Z,9.85
2022-10-29T20:01:06.781Z,10.57
2022-10-29T20:03:36.577Z,12.85
2022-10-29T20:06:09.697Z,10.43
2022-10-29T20:08:39.827Z,10.18
2022-10-29T20:11:10.117Z,10.32
2022-10-29T20:13:40.269Z,9.23
2022-10-29T20:16:12.026Z,10.20
2022-10-29T20:18:41.900Z,10.50
2022-10-29T20:21:15.237Z,10.00
2022-10-29T20:23:45.497Z,9.82
2022-10-29T20:26:15.582Z,10.77
2022-10-29T20:28:45.437Z,10.10
2022-10-29T20:31:31.046Z,9.43
2022-10-29T20:34:03.444Z,9.23
2022-10-29T20:36:35.945Z,9.07
2022-10-29T20:39:06.060Z,10.45
2022-10-29T20:41:35.968Z,9.90
2022-10-29T20:44:05.834Z,10.60
2022-10-29T20:46:40.770Z,10.07
2022-10-29T20:49:13.360Z,9.38
2022-10-29T20:51:45.808Z,9.30
2022-10-29T20:54:15.528Z,9.88
2022-10-29T20:56:45.251Z,9.75
2022-10-29T20:59:14.976Z,9.50
2022-10-29T21:01:44.785Z,9.10
2022-10-29T21:04:15.052Z,9.52
2022-10-29T21:06:47.716Z,10.35
2022-10-29T21:09:17.394Z,9.48
2022-10-29T21:11:47.185Z,11.05
2022-10-29T21:14:16.997Z,11.30
2022-10-29T21:16:47.188Z,9.93
2022-10-29T21:19:16.911Z,9.65
2022-10-29T21:21:49.319Z,10.40
2022-10-29T21:24:20.401Z,10.95
2022-10-29T21:26:50.125Z,10.18
2022-10-29T21:29:19.871Z,10.40
2022-10-29T21:31:51.139Z,10.80
2022-10-29T21:34:21.160Z,11.80
2022-10-29T21:36:54.197Z,10.65
2022-10-29T21:39:24.006Z,10.20
2022-10-29T21:41:53.847Z,10.93
2022-10-29T21:44:23.556Z,11.05
2022-10-29T21:46:53.261Z,10.57
2022-10-29T21:49:23.051Z,9.18
2022-10-29T21:51:55.484Z,9.93
2022-10-29T21:54:28.270Z,10.00
2022-10-29T21:56:58.250Z,9.93
2022-10-29T21:59:27.989Z,11.15
2022-10-29T22:01:59.626Z,8.75
2022-10-29T22:04:29.576Z,9.77
2022-10-29T22:07:03.585Z,8.88
2022-10-29T22:09:33.382Z,9.43
2022-10-29T22:12:03.096Z,10.02
2022-10-29T22:14:32.777Z,9.60
2022-10-29T22:17:02.576Z,10.55
2022-10-29T22:19:32.244Z,8.98
2022-10-29T22:22:04.539Z,8.93
2022-10-29T22:24:34.239Z,9.38
2022-10-29T22:27:04.486Z,9.95
2022-10-29T22:29:34.211Z,10.23
2022-10-29T22:32:05.710Z,9.57
2022-10-29T22:34:35.434Z,9.50
2022-10-29T22:37:07.935Z,9.82
2022-10-29T22:39:37.623Z,10.02
2022-10-29T22:42:07.424Z,9.65
2022-10-29T22:44:40.286Z,9.25
2022-10-29T22:47:10.029Z,9.00
2022-10-29T22:49:39.773Z,8.57
2022-10-29T22:52:12.078Z,9.02
2022-10-29T22:54:41.792Z,8.63
2022-10-29T22:57:11.591Z,8.27
2022-10-29T22:59:41.508Z,8.68
2022-10-29T23:02:11.473Z,9.90
2022-10-29T23:04:41.352Z,8.18
2022-10-29T23:07:13.783Z,8.95
2022-10-29T23:09:43.476Z,8.80
2022-10-29T23:12:13.217Z,9.02
2022-10-29T23:14:42.911Z,8.15
2022-10-29T23:17:22.895Z,9.02
2022-10-29T23:19:56.251Z,8.65
2022-10-29T23:22:29.096Z,8.23
2022-10-29T23:24:58.803Z,9.13
2022-10-29T23:27:28.526Z,8.80
2022-10-29T23:29:58.240Z,9.27
2022-10-29T23:32:27.994Z,9.38
2022-10-29T23:34:57.690Z,8.90
2022-10-29T23:37:31.097Z,9.40
2022-10-29T23:40:00.817Z,8.60
2022-10-29T23:42:30.503Z,9.30
2022-10-29T23:45:05.179Z,9.05
2022-10-29T23:47:37.575Z,9.02
2022-10-29T23:50:07.612Z,9.23
2022-10-29T23:52:39.944Z,9.13
2022-10-29T23:55:10.747Z,9.57
2022-10-29T23:57:40.492Z,8.50
